Flight Track Log - Related Links

Times and Time Zones

All times are in EDT time to prevent confusion due to time zone crossing. See the DAL1231 flight status page for this flight to view local times or setup timezone preferences in your user account.

Time Position Orientation Groundspeed Altitude Reporting Facility
EDT Latitude Longitude Course Direction KTS MPH feet Rate Location/Type
Mon 03:06:03 PM 40.7500 -73.8500 323° Northwest 162 186 1,300  Level New York TRACON
Mon 03:07:03 PM 40.7333 -73.8000 114° Southeast 230 265 3,000 1,900 Climbing New York TRACON
Mon 03:08:03 PM 40.7833 -73.7500 37° Northeast 250 288 5,100 2,350 Climbing New York TRACON
Mon 03:09:00 PM 41.1222 -74.1259 333° Northwest  Level FlightAware Approximate
Mon 03:09:03 PM 40.8333 -73.8167 315° West 266 306 7,700  Level New York TRACON
Mon 03:10:00 PM 41.2097 -74.2001 327° Northwest  Level FlightAware Approximate
Mon 03:10:03 PM 40.8833 -73.9000 308° West 275 316 8,700  Level New York TRACON
Mon 03:11:00 PM 41.3001 -74.2668 323° Northwest  Level FlightAware Approximate
Mon 03:12:14 PM 41.0347 -74.0528 323° Northwest 350 403 12,600  Level New York Center
Mon 03:13:14 PM 41.1161 -74.1228 327° Northwest 385 443 14,800 1,650 Climbing New York Center
Mon 03:14:14 PM 41.2175 -74.2133 326° Northwest 392 451 15,900 1,400 Climbing New York Center
Mon 03:15:14 PM 41.2664 -74.3261 300° West 398 458 17,600 1,050 Climbing New York Center
Mon 03:16:14 PM 41.3139 -74.4697 294° West 393 452 18,000 950 Climbing New York Center
Mon 03:17:14 PM 41.3539 -74.5906 294° West 387 445 19,500 1,700 Climbing New York Center
Mon 03:18:14 PM 41.4014 -74.7261 295° West 398 458 21,400 1,600 Climbing New York Center
Mon 03:19:14 PM 41.4464 -74.8728 292° West 413 475 22,700 1,500 Climbing New York Center
Mon 03:20:14 PM 41.4956 -75.0197 294° West 425 489 24,400 1,850 Climbing New York Center
Mon 03:21:14 PM 41.5442 -75.1669 294° West 430 495 26,400 1,800 Climbing New York Center
Mon 03:22:14 PM 41.5908 -75.3142 293° West 430 495 28,000 1,500 Climbing New York Center
Mon 03:23:14 PM 41.6389 -75.4644 293° West 430 495 29,400 1,000 Climbing New York Center
Mon 03:24:14 PM 41.6853 -75.6067 294° West 425 489 30,000 300 Climbing New York Center
Mon 03:25:14 PM 41.7292 -75.7544 292° West 425 489 30,000  Level New York Center
Mon 03:26:14 PM 41.7750 -75.8997 293° West 425 489 30,000  Level New York Center
Mon 03:27:14 PM 41.8206 -76.0478 292° West 425 489 30,000  Level New York Center
Mon 03:28:14 PM 41.8661 -76.1936 293° West 425 489 30,000 400 Level New York Center
Mon 03:29:14 PM 41.9147 -76.3564 292° West 425 489 30,800 900 Climbing New York Center
Mon 03:30:14 PM 41.9522 -76.4878 291° West 425 489 31,800 800 Climbing New York Center
Mon 03:30:44 PM 41.9800 -76.5728 294° West 425 489 32,000 587 Climbing Cleveland Center
Mon 03:31:46 PM 42.0236 -76.7183 292° West 424 488 32,700 677 Climbing Cleveland Center
Mon 03:32:48 PM 42.0658 -76.8658 291° West 424 488 33,400 629 Climbing Cleveland Center
Mon 03:33:50 PM 42.1103 -77.0128 292° West 424 488 34,000 293 Climbing Cleveland Center
Mon 03:34:51 PM 42.1525 -77.1597 291° West 423 487 34,000  Level Cleveland Center
Mon 03:35:53 PM 42.1950 -77.3078 291° West 423 487 34,000  Level Cleveland Center
Mon 03:36:55 PM 42.2369 -77.4558 291° West 422 486 34,000  Level Cleveland Center
Mon 03:37:57 PM 42.2906 -77.6311 293° West 420 483 34,000  Level Cleveland Center
Mon 03:38:59 PM 42.3456 -77.7717 298° West 420 483 34,000  Level Cleveland Center
Mon 03:40:01 PM 42.4069 -77.9100 301° West 425 489 34,000  Level Cleveland Center
Mon 03:41:03 PM 42.4725 -78.0422 304° West 420 483 34,000  Level Cleveland Center
Mon 03:42:05 PM 42.5183 -78.1853 294° West 412 474 34,000  Level Cleveland Center
Mon 03:43:07 PM 42.5542 -78.3283 289° West 405 466 34,000  Level Cleveland Center
Mon 03:44:09 PM 42.5908 -78.4717 289° West 404 465 34,000  Level Cleveland Center
Mon 03:45:11 PM 42.6272 -78.6122 289° West 399 459 34,000 -726 Level Cleveland Center
Mon 03:46:13 PM 42.6692 -78.7806 289° West 392 451 32,500 -968 Descending Cleveland Center
Mon 03:47:15 PM 42.7042 -78.9239 288° West 398 458 32,000 -242 Descending Cleveland Center
Mon 03:48:17 PM 42.7156 -79.0689 276° West 389 448 32,000  Level Cleveland Center
Mon 03:49:19 PM 42.7164 -79.2164 270° West 389 448 32,000  Level Cleveland Center
Mon 03:50:22 PM 42.7158 -79.3628 270° West 390 449 32,000  Level Cleveland Center
Mon 03:51:24 PM 42.7167 -79.5100 270° West 390 449 32,000 -581 Level Cleveland Center
Mon 03:52:26 PM 42.7167 -79.6883 270° West 393 452 30,800 -1,161 Descending Cleveland Center
Mon 03:53:28 PM 42.7161 -79.8406 270° West 399 459 29,600 -968 Descending Cleveland Center
Mon 03:54:30 PM 42.7153 -79.9897 270° West 400 460 28,800 -774 Descending Cleveland Center
Mon 03:55:32 PM 42.7133 -80.1428 269° West 400 460 28,000 -387 Descending Cleveland Center
Mon 03:56:34 PM 42.7136 -80.2975 270° West 404 465 28,000  Level Cleveland Center
Mon 03:57:36 PM 42.7119 -80.4772 269° West 405 466 28,000  Level Cleveland Center
Mon 03:58:38 PM 42.7103 -80.6297 269° West 405 466 28,000 -48 Level Cleveland Center
Mon 03:59:41 PM 42.7097 -80.7858 270° West 406 467 27,900 -1,008 Descending Cleveland Center
Mon 04:00:43 PM 42.7033 -80.9361 267° West 402 463 25,900 -1,548 Descending Cleveland Center
Mon 04:01:45 PM 42.6867 -81.0822 261° West 396 456 24,700 -871 Descending Cleveland Center
Mon 04:02:47 PM 42.6697 -81.2281 261° West 390 449 24,100 -484 Descending Cleveland Center
Mon 04:03:49 PM 42.6500 -81.3928 261° West 380 437 23,700 -387 Descending Cleveland Center
Mon 04:04:51 PM 42.6333 -81.5281 261° West 365 420 23,300 -532 Descending Cleveland Center
Mon 04:05:53 PM 42.6169 -81.6606 261° West 360 414 22,600 -624 Descending Cleveland Center
Mon 04:06:56 PM 42.6000 -81.8031 261° West 360 414 22,000 -864 Descending Cleveland Center
Mon 04:07:58 PM 42.5836 -81.9328 260° West 350 403 20,800 -1,645 Descending Cleveland Center
Mon 04:09:00 PM 42.5686 -82.0589 261° West 344 396 18,600 -1,984 Descending Cleveland Center
Mon 04:10:02 PM 42.5533 -82.1792 260° West 331 381 16,700 -2,067 Descending Cleveland Center
Mon 04:10:30 PM 42.5433 -82.2456 258° West 321 369 15,500 -2,129 Descending Cleveland Center
Mon 04:11:04 PM 42.5392 -82.2967 264° West 322 371 14,500 -2,093 Descending Cleveland Center
Mon 04:11:56 PM 42.5233 -82.4156 260° West 310 357 12,500 -1,935 Descending Cleveland Center
Mon 04:12:06 PM 42.5242 -82.4122 71° East 314 361 12,500 -492 Level Cleveland Center
Mon 04:12:57 PM 42.5092 -82.5297 260° West 307 353 12,000 -484 Descending Cleveland Center
Mon 04:13:08 PM 42.5064 -82.5475 258° West 309 356 12,000 -677 Level Cleveland Center
Mon 04:13:59 PM 42.4767 -82.6331 245° Southwest 288 331 11,300 -871 Descending Cleveland Center
Mon 04:14:10 PM 42.4717 -82.6478 245° Southwest 293 337 11,100 -1,200 Descending Cleveland Center
Mon 04:14:54 PM 42.4478 -82.7142 244° Southwest 259 298 10,200 -968 Descending Cleveland Center
Mon 04:15:12 PM 42.4411 -82.7364 248° West 270 311 10,100 -1,071 Descending Cleveland Center
Mon 04:15:50 PM 42.4236 -82.7872 245° Southwest 213 245 9,200 -1,355 Descending Cleveland Center
Mon 04:16:14 PM 42.4156 -82.8111 245° Southwest 231 266 8,700 -1,701 Descending Cleveland Center
Mon 04:16:57 PM 42.4044 -82.8781 257° West 235 270 7,300 -1,619 Descending Cleveland Center
Mon 04:17:17 PM 42.4050 -82.8903 274° West 223 257 7,000 -1,300 Descending Cleveland Center
Mon 04:17:57 PM 42.4089 -82.9606 274° West 223 257 6,000 -968 Descending Cleveland Center
Mon 04:18:19 PM 42.4100 -82.9742 276° West 223 257 6,000  Level Cleveland Center
Mon 04:19:05 PM 42.4142 -83.0572 274° West 220 253 6,000 -194 Level Cleveland Center
Mon 04:19:21 PM 42.4156 -83.0722 277° West 223 257 5,800 -1,091 Descending Cleveland Center
Mon 04:20:00 PM 42.3944 -83.1253 242° Southwest 216 249 5,000 -1,258 Descending Cleveland Center
Mon 04:20:23 PM 42.3864 -83.1431 238° Southwest 218 251 4,500 -1,377 Descending Cleveland Center
Mon 04:21:01 PM 42.3581 -83.1908 231° Southwest 216 249 3,600 -1,355 Descending Cleveland Center
Mon 04:21:25 PM 42.3489 -83.2081 234° Southwest 218 251 3,100 -984 Descending Cleveland Center
Mon 04:22:02 PM 42.3197 -83.2533 229° Southwest 208 239 2,600 -484 Descending Cleveland Center
Mon 04:22:27 PM 42.3094 -83.2658 222° Southwest 215 247 2,600 -590 Level Cleveland Center
Mon 04:23:03 PM 42.2769 -83.2897 209° Southwest 155 178 2,000 -774 Descending Cleveland Center
Mon 04:23:29 PM 42.2697 -83.2981 220° Southwest 177 204 1,800 -787 Descending Cleveland Center
Mon 04:24:04 PM 42.2436 -83.3161 207° Southwest 141 162 1,200 -774 Descending Cleveland Center
Mon 04:24:31 PM 42.2353 -83.3236 214° Southwest 155 178 1,000 -444 Descending Cleveland Center

Login

Don't have an account? Register now (free) for customized features, flight alerts, and more!